sensor_id;sensor_type;location;lat;lon;timestamp;pressure;altitude;pressure_sealevel;temperature;humidity
82953;BME280;74888;40.196;44.560;2024-02-23T00:01:07;87340.47;;;10.65;40.99
82953;BME280;74888;40.196;44.560;2024-02-23T00:03:33;87339.97;;;10.72;41.49
82953;BME280;74888;40.196;44.560;2024-02-23T00:06:01;87341.16;;;10.77;41.23
82953;BME280;74888;40.196;44.560;2024-02-23T00:08:27;87338.75;;;10.79;40.88
82953;BME280;74888;40.196;44.560;2024-02-23T00:10:52;87343.06;;;10.76;40.68
82953;BME280;74888;40.196;44.560;2024-02-23T00:13:18;87345.19;;;10.78;41.16
82953;BME280;74888;40.196;44.560;2024-02-23T00:15:43;87335.44;;;10.73;40.12
82953;BME280;74888;40.196;44.560;2024-02-23T00:18:09;87339.28;;;10.66;41.31
82953;BME280;74888;40.196;44.560;2024-02-23T00:20:34;87341.19;;;10.66;41.40
82953;BME280;74888;40.196;44.560;2024-02-23T00:23:02;87333.53;;;10.73;40.37
82953;BME280;74888;40.196;44.560;2024-02-23T00:25:28;87345.19;;;10.83;41.61
82953;BME280;74888;40.196;44.560;2024-02-23T00:27:53;87346.09;;;10.91;41.76
82953;BME280;74888;40.196;44.560;2024-02-23T00:30:19;87354.69;;;10.92;40.94
82953;BME280;74888;40.196;44.560;2024-02-23T00:32:44;87347.56;;;10.87;41.19
82953;BME280;74888;40.196;44.560;2024-02-23T00:35:10;87345.94;;;10.73;42.11
82953;BME280;74888;40.196;44.560;2024-02-23T00:37:36;87340.50;;;10.60;42.30
82953;BME280;74888;40.196;44.560;2024-02-23T00:40:05;87340.97;;;10.58;42.01
82953;BME280;74888;40.196;44.560;2024-02-23T00:42:31;87356.69;;;10.64;41.77
82953;BME280;74888;40.196;44.560;2024-02-23T00:44:56;87358.81;;;10.71;42.10
82953;BME280;74888;40.196;44.560;2024-02-23T00:47:22;87357.16;;;10.73;41.69
82953;BME280;74888;40.196;44.560;2024-02-23T00:49:47;87359.06;;;10.67;42.22
82953;BME280;74888;40.196;44.560;2024-02-23T00:52:14;87360.75;;;10.65;42.40
82953;BME280;74888;40.196;44.560;2024-02-23T00:54:39;87362.88;;;10.72;42.47
82953;BME280;74888;40.196;44.560;2024-02-23T00:57:05;87375.03;;;10.75;42.29
82953;BME280;74888;40.196;44.560;2024-02-23T00:59:31;87377.69;;;10.69;42.74
82953;BME280;74888;40.196;44.560;2024-02-23T01:01:56;87381.22;;;10.77;42.89
82953;BME280;74888;40.196;44.560;2024-02-23T01:04:22;87369.78;;;10.75;42.65
82953;BME280;74888;40.196;44.560;2024-02-23T01:06:48;87372.13;;;10.84;43.20
82953;BME280;74888;40.196;44.560;2024-02-23T01:09:13;87371.69;;;10.85;43.25
82953;BME280;74888;40.196;44.560;2024-02-23T01:11:41;87371.22;;;10.76;42.43
82953;BME280;74888;40.196;44.560;2024-02-23T01:14:07;87380.97;;;10.81;42.27
82953;BME280;74888;40.196;44.560;2024-02-23T01:16:32;87381.28;;;10.66;43.15
82953;BME280;74888;40.196;44.560;2024-02-23T01:18:58;87378.88;;;10.63;42.84
82953;BME280;74888;40.196;44.560;2024-02-23T01:21:23;87373.63;;;10.63;42.70
82953;BME280;74888;40.196;44.560;2024-02-23T01:23:49;87383.69;;;10.53;43.02
82953;BME280;74888;40.196;44.560;2024-02-23T01:26:15;87372.72;;;10.55;42.77
82953;BME280;74888;40.196;44.560;2024-02-23T01:28:40;87378.88;;;10.63;43.17
82953;BME280;74888;40.196;44.560;2024-02-23T01:31:09;87383.84;;;10.77;43.22
82953;BME280;74888;40.196;44.560;2024-02-23T01:33:38;87378.16;;;10.73;43.07
82953;BME280;74888;40.196;44.560;2024-02-23T01:36:05;87376.03;;;10.61;43.31
82953;BME280;74888;40.196;44.560;2024-02-23T01:38:31;87376.50;;;10.59;43.99
82953;BME280;74888;40.196;44.560;2024-02-23T01:40:58;87376.53;;;10.54;44.12
82953;BME280;74888;40.196;44.560;2024-02-23T01:43:24;87371.31;;;10.32;45.21
82953;BME280;74888;40.196;44.560;2024-02-23T01:45:50;87371.38;;;10.10;45.90
82953;BME280;74888;40.196;44.560;2024-02-23T01:48:16;87367.03;;;9.90;47.23
82953;BME280;74888;40.196;44.560;2024-02-23T01:50:43;87359.66;;;9.77;46.48
82953;BME280;74888;40.196;44.560;2024-02-23T01:53:09;87351.31;;;9.68;46.46
82953;BME280;74888;40.196;44.560;2024-02-23T01:55:37;87342.50;;;9.49;47.33
82953;BME280;74888;40.196;44.560;2024-02-23T01:58:04;87343.22;;;9.38;47.77
82953;BME280;74888;40.196;44.560;2024-02-23T02:00:30;87341.31;;;9.39;47.75
82953;BME280;74888;40.196;44.560;2024-02-23T02:02:56;87347.97;;;9.40;47.99
82953;BME280;74888;40.196;44.560;2024-02-23T02:05:22;87346.78;;;9.35;48.11
82953;BME280;74888;40.196;44.560;2024-02-23T02:07:49;87344.16;;;9.35;49.22
82953;BME280;74888;40.196;44.560;2024-02-23T02:10:20;87346.03;;;9.29;47.68
82953;BME280;74888;40.196;44.560;2024-02-23T02:12:45;87343.16;;;9.16;49.23
82953;BME280;74888;40.196;44.560;2024-02-23T02:15:11;87347.44;;;9.14;47.97
82953;BME280;74888;40.196;44.560;2024-02-23T02:17:36;87351.75;;;9.17;47.93
82953;BME280;74888;40.196;44.560;2024-02-23T02:20:03;87351.03;;;9.27;47.63
82953;BME280;74888;40.196;44.560;2024-02-23T02:22:34;87347.94;;;9.34;47.48
82953;BME280;74888;40.196;44.560;2024-02-23T02:25:00;87351.78;;;9.33;47.23
82953;BME280;74888;40.196;44.560;2024-02-23T02:27:25;87351.06;;;9.38;47.08
82953;BME280;74888;40.196;44.560;2024-02-23T02:29:51;87337.25;;;9.43;47.49
82953;BME280;74888;40.196;44.560;2024-02-23T02:32:17;87348.19;;;9.47;47.61
82953;BME280;74888;40.196;44.560;2024-02-23T02:34:42;87339.63;;;9.58;46.47
82953;BME280;74888;40.196;44.560;2024-02-23T02:37:08;87340.59;;;9.71;46.35
82953;BME280;74888;40.196;44.560;2024-02-23T02:39:34;87349.66;;;9.70;46.26
82953;BME280;74888;40.196;44.560;2024-02-23T02:41:59;87342.50;;;9.71;46.59
82953;BME280;74888;40.196;44.560;2024-02-23T02:44:25;87358.47;;;9.73;45.64
82953;BME280;74888;40.196;44.560;2024-02-23T02:46:52;87359.16;;;9.84;45.28
82953;BME280;74888;40.196;44.560;2024-02-23T02:49:17;87347.28;;;9.89;45.64
82953;BME280;74888;40.196;44.560;2024-02-23T02:51:43;87335.38;;;9.82;45.74
82953;BME280;74888;40.196;44.560;2024-02-23T02:54:10;87347.25;;;10.00;45.39
82953;BME280;74888;40.196;44.560;2024-02-23T02:56:36;87342.25;;;10.08;44.45
82953;BME280;74888;40.196;44.560;2024-02-23T02:59:01;87351.31;;;10.12;44.81
82953;BME280;74888;40.196;44.560;2024-02-23T03:01:27;87347.03;;;10.09;44.71
82953;BME280;74888;40.196;44.560;2024-02-23T03:03:52;87353.94;;;10.12;44.60
82953;BME280;74888;40.196;44.560;2024-02-23T03:06:18;87357.75;;;10.22;44.28
82953;BME280;74888;40.196;44.560;2024-02-23T03:08:43;87360.13;;;10.26;44.06
82953;BME280;74888;40.196;44.560;2024-02-23T03:11:09;87363.91;;;10.30;44.15
82953;BME280;74888;40.196;44.560;2024-02-23T03:13:35;87366.31;;;10.34;44.85
82953;BME280;74888;40.196;44.560;2024-02-23T03:16:00;87368.94;;;10.39;45.15
82953;BME280;74888;40.196;44.560;2024-02-23T03:18:26;87380.59;;;10.49;44.21
82953;BME280;74888;40.196;44.560;2024-02-23T03:20:54;87384.38;;;10.59;44.36
82953;BME280;74888;40.196;44.560;2024-02-23T03:23:20;87388.44;;;10.60;44.05
82953;BME280;74888;40.196;44.560;2024-02-23T03:25:46;87398.47;;;10.56;44.37
82953;BME280;74888;40.196;44.560;2024-02-23T03:28:12;87402.97;;;10.72;44.35
82953;BME280;74888;40.196;44.560;2024-02-23T03:30:37;87411.31;;;10.76;43.82
82953;BME280;74888;40.196;44.560;2024-02-23T03:33:03;87420.59;;;10.88;44.03
82953;BME280;74888;40.196;44.560;2024-02-23T03:35:29;87428.66;;;11.07;43.40
82953;BME280;74888;40.196;44.560;2024-02-23T03:37:54;87440.19;;;10.82;43.88
82953;BME280;74888;40.196;44.560;2024-02-23T03:40:20;87443.78;;;10.62;45.92
82953;BME280;74888;40.196;44.560;2024-02-23T03:42:45;87448.78;;;10.60;46.28
82953;BME280;74888;40.196;44.560;2024-02-23T03:45:11;87457.63;;;10.68;46.24
82953;BME280;74888;40.196;44.560;2024-02-23T03:47:38;87468.59;;;10.67;46.73
82953;BME280;74888;40.196;44.560;2024-02-23T03:50:04;87475.28;;;10.57;46.57
82953;BME280;74888;40.196;44.560;2024-02-23T03:52:30;87474.56;;;10.45;48.16
82953;BME280;74888;40.196;44.560;2024-02-23T03:54:55;87479.56;;;10.49;48.06
82953;BME280;74888;40.196;44.560;2024-02-23T03:57:21;87480.28;;;10.44;47.68
82953;BME280;74888;40.196;44.560;2024-02-23T03:59:54;87484.13;;;10.43;49.48
82953;BME280;74888;40.196;44.560;2024-02-23T04:02:19;87493.41;;;10.49;48.19
82953;BME280;74888;40.196;44.560;2024-02-23T04:04:46;87491.50;;;10.50;48.26
82953;BME280;74888;40.196;44.560;2024-02-23T04:07:11;87486.03;;;10.48;49.44
82953;BME280;74888;40.196;44.560;2024-02-23T04:09:37;87490.06;;;10.49;49.13
82953;BME280;74888;40.196;44.560;2024-02-23T04:12:03;87498.41;;;10.42;49.90
82953;BME280;74888;40.196;44.560;2024-02-23T04:14:28;87502.22;;;10.24;49.01
82953;BME280;74888;40.196;44.560;2024-02-23T04:16:54;87497.69;;;10.19;50.20
82953;BME280;74888;40.196;44.560;2024-02-23T04:19:19;87518.69;;;10.19;50.27
82953;BME280;74888;40.196;44.560;2024-02-23T04:21:45;87530.59;;;10.09;49.79
82953;BME280;74888;40.196;44.560;2024-02-23T04:24:11;87528.66;;;10.04;50.72
82953;BME280;74888;40.196;44.560;2024-02-23T04:26:37;87540.78;;;10.02;51.39
82953;BME280;74888;40.196;44.560;2024-02-23T04:29:02;87538.88;;;9.96;51.50
82953;BME280;74888;40.196;44.560;2024-02-23T04:31:28;87548.41;;;9.99;51.82
82953;BME280;74888;40.196;44.560;2024-02-23T04:33:54;87542.97;;;10.09;51.56
82953;BME280;74888;40.196;44.560;2024-02-23T04:36:20;87553.25;;;10.18;50.82
82953;BME280;74888;40.196;44.560;2024-02-23T04:38:48;87556.13;;;10.20;51.21
82953;BME280;74888;40.196;44.560;2024-02-23T04:41:14;87550.63;;;10.23;50.47
82953;BME280;74888;40.196;44.560;2024-02-23T04:43:39;87558.03;;;10.19;51.24
82953;BME280;74888;40.196;44.560;2024-02-23T04:46:05;87565.88;;;10.19;51.23
82953;BME280;74888;40.196;44.560;2024-02-23T04:48:30;87563.47;;;10.10;51.75
82953;BME280;74888;40.196;44.560;2024-02-23T04:50:57;87557.06;;;10.17;51.31
82953;BME280;74888;40.196;44.560;2024-02-23T04:53:23;87557.06;;;10.22;51.83
82953;BME280;74888;40.196;44.560;2024-02-23T04:55:48;87562.06;;;10.20;50.98
82953;BME280;74888;40.196;44.560;2024-02-23T04:58:14;87559.81;;;9.85;51.83
82953;BME280;74888;40.196;44.560;2024-02-23T05:00:39;87566.09;;;9.40;51.73
82953;BME280;74888;40.196;44.560;2024-02-23T05:03:05;87567.59;;;9.16;51.89
82953;BME280;74888;40.196;44.560;2024-02-23T05:05:31;87576.84;;;9.06;53.41
82953;BME280;74888;40.196;44.560;2024-02-23T05:07:57;87579.19;;;9.04;53.78
82953;BME280;74888;40.196;44.560;2024-02-23T05:10:23;87574.47;;;9.08;54.09
82953;BME280;74888;40.196;44.560;2024-02-23T05:12:49;87577.59;;;9.12;53.03
82953;BME280;74888;40.196;44.560;2024-02-23T05:15:15;87583.59;;;9.23;52.96
82953;BME280;74888;40.196;44.560;2024-02-23T05:17:40;87574.63;;;9.41;52.79
82953;BME280;74888;40.196;44.560;2024-02-23T05:20:07;87570.16;;;9.47;52.97
82953;BME280;74888;40.196;44.560;2024-02-23T05:22:33;87572.56;;;9.50;52.93
82953;BME280;74888;40.196;44.560;2024-02-23T05:24:59;87578.31;;;9.60;52.72
82953;BME280;74888;40.196;44.560;2024-02-23T05:27:25;87585.47;;;9.65;52.98
82953;BME280;74888;40.196;44.560;2024-02-23T05:29:52;87587.66;;;9.72;53.51
82953;BME280;74888;40.196;44.560;2024-02-23T05:32:18;87584.59;;;9.79;53.31
82953;BME280;74888;40.196;44.560;2024-02-23T05:34:46;87594.63;;;9.91;53.59
82953;BME280;74888;40.196;44.560;2024-02-23T05:37:16;87593.41;;;9.87;54.29
82953;BME280;74888;40.196;44.560;2024-02-23T05:39:42;87600.38;;;9.95;52.08
82953;BME280;74888;40.196;44.560;2024-02-23T05:42:08;87610.69;;;10.10;51.85
82953;BME280;74888;40.196;44.560;2024-02-23T05:44:33;87605.94;;;10.14;51.55
82953;BME280;74888;40.196;44.560;2024-02-23T05:46:59;87616.84;;;10.07;53.24
82953;BME280;74888;40.196;44.560;2024-02-23T05:49:24;87613.94;;;9.99;51.91
82953;BME280;74888;40.196;44.560;2024-02-23T05:51:50;87616.56;;;9.99;52.94
82953;BME280;74888;40.196;44.560;2024-02-23T05:54:16;87623.75;;;10.05;52.70
82953;BME280;74888;40.196;44.560;2024-02-23T05:56:41;87627.84;;;10.17;52.67
82953;BME280;74888;40.196;44.560;2024-02-23T05:59:07;87624.56;;;10.27;53.32
82953;BME280;74888;40.196;44.560;2024-02-23T06:01:32;87623.38;;;10.28;52.36
82953;BME280;74888;40.196;44.560;2024-02-23T06:03:58;87626.47;;;10.32;52.45
82953;BME280;74888;40.196;44.560;2024-02-23T06:06:23;87621.91;;;10.22;52.66
82953;BME280;74888;40.196;44.560;2024-02-23T06:08:49;87627.41;;;10.24;52.85
82953;BME280;74888;40.196;44.560;2024-02-23T06:11:16;87621.69;;;10.25;52.63
82953;BME280;74888;40.196;44.560;2024-02-23T06:13:41;87627.88;;;10.22;52.53
82953;BME280;74888;40.196;44.560;2024-02-23T06:16:11;87621.44;;;10.23;52.76
82953;BME280;74888;40.196;44.560;2024-02-23T06:18:38;87622.41;;;10.26;52.66
82953;BME280;74888;40.196;44.560;2024-02-23T06:21:16;87621.44;;;10.23;53.63
82953;BME280;74888;40.196;44.560;2024-02-23T06:23:42;87613.56;;;10.18;52.60
82953;BME280;74888;40.196;44.560;2024-02-23T06:26:08;87607.16;;;10.24;52.56
82953;BME280;74888;40.196;44.560;2024-02-23T06:28:34;87615.03;;;10.24;52.98
82953;BME280;74888;40.196;44.560;2024-02-23T06:31:03;87605.03;;;10.39;52.79
82953;BME280;74888;40.196;44.560;2024-02-23T06:33:30;87608.63;;;10.53;51.70
82953;BME280;74888;40.196;44.560;2024-02-23T06:35:56;87615.06;;;10.57;52.08
82953;BME280;74888;40.196;44.560;2024-02-23T06:38:21;87623.91;;;10.60;52.63
82953;BME280;74888;40.196;44.560;2024-02-23T06:40:47;87621.28;;;10.54;52.44
82953;BME280;74888;40.196;44.560;2024-02-23T06:43:13;87618.41;;;10.52;53.44
82953;BME280;74888;40.196;44.560;2024-02-23T06:45:38;87629.84;;;10.44;53.83
82953;BME280;74888;40.196;44.560;2024-02-23T06:48:05;87621.50;;;10.40;53.71
82953;BME280;74888;40.196;44.560;2024-02-23T06:50:30;87633.88;;;10.34;53.99
82953;BME280;74888;40.196;44.560;2024-02-23T06:52:56;87629.09;;;10.32;53.69
82953;BME280;74888;40.196;44.560;2024-02-23T06:55:21;87640.78;;;10.26;53.54
82953;BME280;74888;40.196;44.560;2024-02-23T06:57:47;87637.41;;;10.25;54.26
82953;BME280;74888;40.196;44.560;2024-02-23T07:00:13;87638.41;;;10.28;54.05
82953;BME280;74888;40.196;44.560;2024-02-23T07:02:39;87644.13;;;10.26;54.75
82953;BME280;74888;40.196;44.560;2024-02-23T07:05:05;87647.00;;;10.28;54.50
82953;BME280;74888;40.196;44.560;2024-02-23T07:07:32;87645.56;;;10.33;55.51
82953;BME280;74888;40.196;44.560;2024-02-23T07:09:59;87652.94;;;10.29;55.12
82953;BME280;74888;40.196;44.560;2024-02-23T07:12:25;87644.84;;;10.32;55.43
82953;BME280;74888;40.196;44.560;2024-02-23T07:14:53;87644.38;;;10.34;54.55
82953;BME280;74888;40.196;44.560;2024-02-23T07:17:19;87647.72;;;10.34;55.51
82953;BME280;74888;40.196;44.560;2024-02-23T07:19:44;87634.13;;;10.41;54.71
82953;BME280;74888;40.196;44.560;2024-02-23T07:22:10;87634.63;;;10.45;55.35
82953;BME280;74888;40.196;44.560;2024-02-23T07:24:42;87633.91;;;10.50;55.41
82953;BME280;74888;40.196;44.560;2024-02-23T07:27:08;87631.28;;;10.56;54.70
82953;BME280;74888;40.196;44.560;2024-02-23T07:29:34;87637.03;;;10.65;54.37
82953;BME280;74888;40.196;44.560;2024-02-23T07:32:00;87636.78;;;10.69;55.26
82953;BME280;74888;40.196;44.560;2024-02-23T07:34:25;87634.91;;;10.69;54.38
82953;BME280;74888;40.196;44.560;2024-02-23T07:36:54;87616.03;;;10.43;55.38
82953;BME280;74888;40.196;44.560;2024-02-23T07:39:20;87637.50;;;10.53;55.10
82953;BME280;74888;40.196;44.560;2024-02-23T07:41:47;87618.22;;;10.67;54.89
82953;BME280;74888;40.196;44.560;2024-02-23T07:44:13;87623.22;;;10.81;53.89
82953;BME280;74888;40.196;44.560;2024-02-23T07:46:38;87632.75;;;11.01;54.04
82953;BME280;74888;40.196;44.560;2024-02-23T07:49:04;87620.59;;;10.92;53.82
82953;BME280;74888;40.196;44.560;2024-02-23T07:51:31;87620.84;;;10.78;53.94
82953;BME280;74888;40.196;44.560;2024-02-23T07:53:57;87618.44;;;10.74;53.73
82953;BME280;74888;40.196;44.560;2024-02-23T07:56:22;87617.97;;;10.81;54.78
82953;BME280;74888;40.196;44.560;2024-02-23T07:58:48;87614.38;;;10.79;53.74
82953;BME280;74888;40.196;44.560;2024-02-23T08:01:14;87614.63;;;10.97;53.14
82953;BME280;74888;40.196;44.560;2024-02-23T08:03:40;87613.22;;;11.02;53.50
82953;BME280;74888;40.196;44.560;2024-02-23T08:06:06;87615.84;;;10.85;52.89
82953;BME280;74888;40.196;44.560;2024-02-23T08:08:31;87619.41;;;10.88;54.21
82953;BME280;74888;40.196;44.560;2024-02-23T08:11:01;87616.78;;;11.04;53.60
82953;BME280;74888;40.196;44.560;2024-02-23T08:13:27;87622.03;;;11.15;52.82
82953;BME280;74888;40.196;44.560;2024-02-23T08:15:53;87622.97;;;11.29;53.75
82953;BME280;74888;40.196;44.560;2024-02-23T08:18:18;87619.16;;;11.36;53.14
82953;BME280;74888;40.196;44.560;2024-02-23T08:20:44;87624.88;;;11.45;52.56
82953;BME280;74888;40.196;44.560;2024-02-23T08:23:09;87626.75;;;11.50;52.25
82953;BME280;74888;40.196;44.560;2024-02-23T08:25:36;87624.63;;;11.54;52.10
82953;BME280;74888;40.196;44.560;2024-02-23T08:28:02;87626.28;;;11.52;52.02
82953;BME280;74888;40.196;44.560;2024-02-23T08:30:27;87629.19;;;11.43;52.50
82953;BME280;74888;40.196;44.560;2024-02-23T08:32:53;87624.88;;;11.45;52.04
82953;BME280;74888;40.196;44.560;2024-02-23T08:35:19;87632.25;;;11.52;52.76
82953;BME280;74888;40.196;44.560;2024-02-23T08:37:45;87620.06;;;11.55;51.56
82953;BME280;74888;40.196;44.560;2024-02-23T08:40:11;87615.53;;;11.55;51.52
82953;BME280;74888;40.196;44.560;2024-02-23T08:42:37;87628.91;;;11.63;51.25
82953;BME280;74888;40.196;44.560;2024-02-23T08:45:04;87618.88;;;11.67;51.28
82953;BME280;74888;40.196;44.560;2024-02-23T08:47:29;87625.56;;;11.62;50.61
82953;BME280;74888;40.196;44.560;2024-02-23T08:49:59;87617.47;;;11.44;50.93
82953;BME280;74888;40.196;44.560;2024-02-23T08:52:24;87619.81;;;11.58;52.42
82953;BME280;74888;40.196;44.560;2024-02-23T08:54:51;87605.47;;;11.70;51.19
82953;BME280;74888;40.196;44.560;2024-02-23T08:57:17;87610.69;;;11.87;50.21
82953;BME280;74888;40.196;44.560;2024-02-23T08:59:47;87604.69;;;11.97;49.89
82953;BME280;74888;40.196;44.560;2024-02-23T09:02:13;87620.63;;;12.16;50.33
82953;BME280;74888;40.196;44.560;2024-02-23T09:04:39;87612.16;;;12.34;49.73
82953;BME280;74888;40.196;44.560;2024-02-23T09:07:05;87606.78;;;12.56;49.04
82953;BME280;74888;40.196;44.560;2024-02-23T09:09:31;87609.59;;;12.69;48.39
82953;BME280;74888;40.196;44.560;2024-02-23T09:11:56;87608.84;;;12.74;48.91
82953;BME280;74888;40.196;44.560;2024-02-23T09:14:22;87613.81;;;12.83;47.78
82953;BME280;74888;40.196;44.560;2024-02-23T09:16:47;87610.41;;;12.88;47.72
82953;BME280;74888;40.196;44.560;2024-02-23T09:19:16;87612.78;;;12.92;47.76
82953;BME280;74888;40.196;44.560;2024-02-23T09:21:42;87616.22;;;12.81;47.14
82953;BME280;74888;40.196;44.560;2024-02-23T09:24:08;87618.66;;;12.74;47.72
82953;BME280;74888;40.196;44.560;2024-02-23T09:26:33;87620.22;;;12.53;46.88
82953;BME280;74888;40.196;44.560;2024-02-23T09:28:59;87620.75;;;12.46;47.68
82953;BME280;74888;40.196;44.560;2024-02-23T09:31:24;87620.97;;;12.48;46.54
82953;BME280;74888;40.196;44.560;2024-02-23T09:33:51;87614.28;;;12.47;46.98
82953;BME280;74888;40.196;44.560;2024-02-23T09:36:17;87620.84;;;12.23;46.78
82953;BME280;74888;40.196;44.560;2024-02-23T09:38:43;87620.63;;;12.16;46.96
82953;BME280;74888;40.196;44.560;2024-02-23T09:41:21;87618.00;;;12.10;46.28
82953;BME280;74888;40.196;44.560;2024-02-23T09:43:48;87618.72;;;12.22;47.20
82953;BME280;74888;40.196;44.560;2024-02-23T09:46:20;87619.56;;;12.41;46.79
82953;BME280;74888;40.196;44.560;2024-02-23T09:48:48;87626.19;;;12.53;46.82
82953;BME280;74888;40.196;44.560;2024-02-23T09:51:15;87614.63;;;12.67;46.59
82953;BME280;74888;40.196;44.560;2024-02-23T09:53:42;87618.84;;;12.81;45.52
82953;BME280;74888;40.196;44.560;2024-02-23T09:56:10;87616.53;;;12.72;45.75
82953;BME280;74888;40.196;44.560;2024-02-23T09:58:36;87609.53;;;12.80;45.14
82953;BME280;74888;40.196;44.560;2024-02-23T10:01:06;87612.03;;;12.97;45.04
82953;BME280;74888;40.196;44.560;2024-02-23T10:03:32;87617.03;;;13.06;45.44
82953;BME280;74888;40.196;44.560;2024-02-23T10:05:57;87616.56;;;13.07;45.38
82953;BME280;74888;40.196;44.560;2024-02-23T10:08:29;87615.81;;;13.07;44.15
82953;BME280;74888;40.196;44.560;2024-02-23T10:10:55;87613.16;;;13.12;45.32
82953;BME280;74888;40.196;44.560;2024-02-23T10:13:22;87615.41;;;12.97;45.56
82953;BME280;74888;40.196;44.560;2024-02-23T10:15:52;87607.00;;;12.99;42.69
82953;BME280;74888;40.196;44.560;2024-02-23T10:18:19;87603.59;;;13.09;43.78
82953;BME280;74888;40.196;44.560;2024-02-23T10:20:46;87606.19;;;13.15;44.00
82953;BME280;74888;40.196;44.560;2024-02-23T10:23:11;87603.28;;;13.18;43.88
82953;BME280;74888;40.196;44.560;2024-02-23T10:25:37;87603.72;;;13.22;43.34
82953;BME280;74888;40.196;44.560;2024-02-23T10:28:06;87593.69;;;13.21;44.88
82953;BME280;74888;40.196;44.560;2024-02-23T10:30:32;87605.56;;;13.03;45.04
82953;BME280;74888;40.196;44.560;2024-02-23T10:32:58;87601.28;;;12.95;45.48
82953;BME280;74888;40.196;44.560;2024-02-23T10:35:25;87605.38;;;12.90;44.94
82953;BME280;74888;40.196;44.560;2024-02-23T10:37:53;87604.41;;;12.93;45.06
82953;BME280;74888;40.196;44.560;2024-02-23T10:40:20;87603.91;;;12.95;44.13
82953;BME280;74888;40.196;44.560;2024-02-23T10:42:49;87597.88;;;13.00;43.83
82953;BME280;74888;40.196;44.560;2024-02-23T10:45:21;87602.47;;;12.99;43.35
82953;BME280;74888;40.196;44.560;2024-02-23T10:47:50;87598.38;;;13.04;43.29
82953;BME280;74888;40.196;44.560;2024-02-23T10:50:17;87600.47;;;13.11;44.16
82953;BME280;74888;40.196;44.560;2024-02-23T10:52:45;87591.31;;;13.17;43.71
82953;BME280;74888;40.196;44.560;2024-02-23T10:55:12;87591.97;;;13.23;44.38
82953;BME280;74888;40.196;44.560;2024-02-23T10:57:38;87590.44;;;13.33;43.46
82953;BME280;74888;40.196;44.560;2024-02-23T11:00:05;87603.78;;;13.46;43.08
82953;BME280;74888;40.196;44.560;2024-02-23T11:02:38;87607.03;;;13.58;42.05
82953;BME280;74888;40.196;44.560;2024-02-23T11:05:05;87598.44;;;13.52;41.25
82953;BME280;74888;40.196;44.560;2024-02-23T11:07:30;87613.59;;;13.46;41.24
82953;BME280;74888;40.196;44.560;2024-02-23T11:09:59;87607.75;;;13.29;40.42
82953;BME280;74888;40.196;44.560;2024-02-23T11:12:26;87606.91;;;13.15;40.33
82953;BME280;74888;40.196;44.560;2024-02-23T11:14:58;87602.59;;;13.18;42.00
82953;BME280;74888;40.196;44.560;2024-02-23T11:17:26;87610.75;;;13.14;41.21
82953;BME280;74888;40.196;44.560;2024-02-23T11:19:54;87610.41;;;13.23;41.62
82953;BME280;74888;40.196;44.560;2024-02-23T11:22:27;87613.03;;;13.29;41.57
82953;BME280;74888;40.196;44.560;2024-02-23T11:25:03;87616.59;;;13.02;41.54
82953;BME280;74888;40.196;44.560;2024-02-23T11:27:33;87613.56;;;12.81;41.43
82953;BME280;74888;40.196;44.560;2024-02-23T11:30:06;87609.53;;;12.80;42.10
82953;BME280;74888;40.196;44.560;2024-02-23T11:32:41;87609.06;;;12.76;42.57
82953;BME280;74888;40.196;44.560;2024-02-23T11:35:08;87608.41;;;12.65;42.70
82953;BME280;74888;40.196;44.560;2024-02-23T11:37:48;87614.38;;;12.71;41.84
82953;BME280;74888;40.196;44.560;2024-02-23T11:40:17;87619.41;;;12.69;43.24
82953;BME280;74888;40.196;44.560;2024-02-23T11:42:43;87618.03;;;12.62;42.45
82953;BME280;74888;40.196;44.560;2024-02-23T11:45:10;87621.59;;;12.65;43.06
82953;BME280;74888;40.196;44.560;2024-02-23T11:47:39;87622.03;;;12.69;43.82
82953;BME280;74888;40.196;44.560;2024-02-23T11:50:08;87620.41;;;12.66;42.88
82953;BME280;74888;40.196;44.560;2024-02-23T11:52:37;87613.44;;;12.63;42.92
82953;BME280;74888;40.196;44.560;2024-02-23T11:55:03;87612.75;;;12.62;43.42
82953;BME280;74888;40.196;44.560;2024-02-23T11:57:32;87613.72;;;12.59;43.45
82953;BME280;74888;40.196;44.560;2024-02-23T11:59:57;87612.75;;;12.62;43.78
82953;BME280;74888;40.196;44.560;2024-02-23T12:02:24;87619.41;;;12.69;43.50
82953;BME280;74888;40.196;44.560;2024-02-23T12:04:49;87613.44;;;12.68;43.17
82953;BME280;74888;40.196;44.560;2024-02-23T12:07:21;87606.31;;;12.58;43.11
82953;BME280;74888;40.196;44.560;2024-02-23T12:09:47;87607.78;;;12.48;42.91
82953;BME280;74888;40.196;44.560;2024-02-23T12:12:13;87608.50;;;12.48;42.30
82953;BME280;74888;40.196;44.560;2024-02-23T12:14:40;87616.13;;;12.57;41.76
82953;BME280;74888;40.196;44.560;2024-02-23T12:17:07;87625.78;;;12.38;41.30
82953;BME280;74888;40.196;44.560;2024-02-23T12:19:43;87622.22;;;11.73;42.70
82953;BME280;74888;40.196;44.560;2024-02-23T12:22:10;87641.84;;;10.83;45.55
82953;BME280;74888;40.196;44.560;2024-02-23T12:24:36;87645.31;;;10.31;46.82
82953;BME280;74888;40.196;44.560;2024-02-23T12:27:02;87643.47;;;9.89;48.97
82953;BME280;74888;40.196;44.560;2024-02-23T12:29:28;87649.84;;;9.77;50.68
82953;BME280;74888;40.196;44.560;2024-02-23T12:32:06;87653.50;;;9.48;51.95
82953;BME280;74888;40.196;44.560;2024-02-23T12:34:32;87655.16;;;9.09;52.61
82953;BME280;74888;40.196;44.560;2024-02-23T12:36:58;87647.09;;;8.82;53.47
82953;BME280;74888;40.196;44.560;2024-02-23T12:39:24;87645.31;;;8.67;55.42
82953;BME280;74888;40.196;44.560;2024-02-23T12:41:50;87648.91;;;8.70;53.35
82953;BME280;74888;40.196;44.560;2024-02-23T12:44:16;87647.41;;;8.38;55.94
82953;BME280;74888;40.196;44.560;2024-02-23T12:46:42;87651.03;;;8.20;56.15
82953;BME280;74888;40.196;44.560;2024-02-23T12:49:07;87647.38;;;7.92;55.95